sensor_id;sensor_type;location;lat;lon;timestamp;P1;durP1;ratioP1;P2;durP2;ratioP2
27612;SDS011;15036;48.094;-1.690;2022-09-28T00:01:18;7.95;;;1.85;;
27612;SDS011;15036;48.094;-1.690;2022-09-28T00:03:45;6.32;;;1.60;;
27612;SDS011;15036;48.094;-1.690;2022-09-28T00:06:13;6.30;;;1.75;;
27612;SDS011;15036;48.094;-1.690;2022-09-28T00:08:42;8.82;;;1.90;;
27612;SDS011;15036;48.094;-1.690;2022-09-28T00:11:09;6.85;;;2.00;;
27612;SDS011;15036;48.094;-1.690;2022-09-28T00:13:38;7.18;;;1.90;;
27612;SDS011;15036;48.094;-1.690;2022-09-28T00:16:05;8.20;;;2.05;;
27612;SDS011;15036;48.094;-1.690;2022-09-28T00:18:33;8.82;;;2.30;;
27612;SDS011;15036;48.094;-1.690;2022-09-28T00:23:25;8.25;;;2.00;;
27612;SDS011;15036;48.094;-1.690;2022-09-28T00:25:51;6.70;;;1.80;;
27612;SDS011;15036;48.094;-1.690;2022-09-28T00:28:16;7.85;;;2.10;;
27612;SDS011;15036;48.094;-1.690;2022-09-28T00:30:41;7.68;;;2.00;;
27612;SDS011;15036;48.094;-1.690;2022-09-28T00:33:07;7.63;;;1.98;;
27612;SDS011;15036;48.094;-1.690;2022-09-28T00:35:32;7.43;;;1.80;;
27612;SDS011;15036;48.094;-1.690;2022-09-28T00:37:58;8.05;;;2.03;;
27612;SDS011;15036;48.094;-1.690;2022-09-28T00:40:24;7.20;;;2.08;;
27612;SDS011;15036;48.094;-1.690;2022-09-28T00:42:49;8.63;;;2.13;;
27612;SDS011;15036;48.094;-1.690;2022-09-28T00:45:15;9.20;;;2.03;;
27612;SDS011;15036;48.094;-1.690;2022-09-28T00:47:49;8.60;;;2.28;;
27612;SDS011;15036;48.094;-1.690;2022-09-28T00:50:28;8.02;;;2.08;;
27612;SDS011;15036;48.094;-1.690;2022-09-28T00:53:11;7.20;;;2.00;;
27612;SDS011;15036;48.094;-1.690;2022-09-28T00:55:51;7.20;;;1.98;;
27612;SDS011;15036;48.094;-1.690;2022-09-28T00:58:22;7.53;;;2.13;;
27612;SDS011;15036;48.094;-1.690;2022-09-28T01:00:52;4.80;;;1.83;;
27612;SDS011;15036;48.094;-1.690;2022-09-28T01:03:23;5.82;;;1.80;;
27612;SDS011;15036;48.094;-1.690;2022-09-28T01:05:49;7.68;;;1.90;;
27612;SDS011;15036;48.094;-1.690;2022-09-28T01:08:17;6.13;;;1.50;;
27612;SDS011;15036;48.094;-1.690;2022-09-28T01:10:45;7.72;;;1.80;;
27612;SDS011;15036;48.094;-1.690;2022-09-28T01:13:12;5.95;;;1.48;;
27612;SDS011;15036;48.094;-1.690;2022-09-28T01:15:41;5.97;;;1.83;;
27612;SDS011;15036;48.094;-1.690;2022-09-28T01:21:13;5.63;;;1.38;;
27612;SDS011;15036;48.094;-1.690;2022-09-28T01:26:58;5.75;;;1.50;;
27612;SDS011;15036;48.094;-1.690;2022-09-28T01:29:38;8.60;;;1.33;;
27612;SDS011;15036;48.094;-1.690;2022-09-28T01:32:24;5.25;;;1.33;;
27612;SDS011;15036;48.094;-1.690;2022-09-28T01:35:08;4.55;;;1.13;;
27612;SDS011;15036;48.094;-1.690;2022-09-28T01:40:13;5.03;;;1.17;;
27612;SDS011;15036;48.094;-1.690;2022-09-28T01:42:40;5.15;;;1.30;;
27612;SDS011;15036;48.094;-1.690;2022-09-28T01:45:13;2.95;;;1.10;;
27612;SDS011;15036;48.094;-1.690;2022-09-28T01:47:45;3.42;;;1.05;;
27612;SDS011;15036;48.094;-1.690;2022-09-28T01:50:14;3.17;;;0.82;;
27612;SDS011;15036;48.094;-1.690;2022-09-28T01:52:54;5.45;;;1.10;;
27612;SDS011;15036;48.094;-1.690;2022-09-28T01:58:01;3.72;;;1.00;;
27612;SDS011;15036;48.094;-1.690;2022-09-28T02:00:37;4.20;;;1.00;;
27612;SDS011;15036;48.094;-1.690;2022-09-28T02:03:17;4.00;;;0.97;;
27612;SDS011;15036;48.094;-1.690;2022-09-28T02:05:48;3.97;;;1.08;;
27612;SDS011;15036;48.094;-1.690;2022-09-28T02:08:26;3.38;;;1.05;;
27612;SDS011;15036;48.094;-1.690;2022-09-28T02:13:44;6.18;;;1.17;;
27612;SDS011;15036;48.094;-1.690;2022-09-28T02:16:16;4.28;;;1.17;;
27612;SDS011;15036;48.094;-1.690;2022-09-28T02:19:03;1.05;;;0.35;;
27612;SDS011;15036;48.094;-1.690;2022-09-28T02:24:17;0.60;;;0.20;;
27612;SDS011;15036;48.094;-1.690;2022-09-28T02:26:51;0.25;;;0.20;;
27612;SDS011;15036;48.094;-1.690;2022-09-28T02:29:23;1.30;;;0.30;;
27612;SDS011;15036;48.094;-1.690;2022-09-28T02:31:49;1.48;;;0.57;;
27612;SDS011;15036;48.094;-1.690;2022-09-28T02:34:15;0.73;;;0.20;;
27612;SDS011;15036;48.094;-1.690;2022-09-28T02:36:40;0.38;;;0.20;;
27612;SDS011;15036;48.094;-1.690;2022-09-28T02:39:14;0.52;;;0.30;;
27612;SDS011;15036;48.094;-1.690;2022-09-28T02:41:54;0.68;;;0.30;;
27612;SDS011;15036;48.094;-1.690;2022-09-28T02:46:57;1.40;;;0.40;;
27612;SDS011;15036;48.094;-1.690;2022-09-28T02:49:30;1.70;;;0.30;;
27612;SDS011;15036;48.094;-1.690;2022-09-28T02:57:09;1.65;;;0.50;;
27612;SDS011;15036;48.094;-1.690;2022-09-28T02:59:43;0.88;;;0.40;;
27612;SDS011;15036;48.094;-1.690;2022-09-28T03:02:29;2.90;;;0.50;;
27612;SDS011;15036;48.094;-1.690;2022-09-28T03:07:53;2.40;;;0.60;;
27612;SDS011;15036;48.094;-1.690;2022-09-28T03:12:54;2.50;;;0.70;;
27612;SDS011;15036;48.094;-1.690;2022-09-28T03:15:23;1.27;;;0.50;;
27612;SDS011;15036;48.094;-1.690;2022-09-28T03:17:50;2.67;;;0.50;;
27612;SDS011;15036;48.094;-1.690;2022-09-28T03:20:17;1.08;;;0.50;;
27612;SDS011;15036;48.094;-1.690;2022-09-28T03:22:43;1.45;;;0.60;;
27612;SDS011;15036;48.094;-1.690;2022-09-28T03:25:08;1.58;;;0.55;;
27612;SDS011;15036;48.094;-1.690;2022-09-28T03:27:34;1.50;;;0.60;;
27612;SDS011;15036;48.094;-1.690;2022-09-28T03:30:00;1.48;;;0.75;;
27612;SDS011;15036;48.094;-1.690;2022-09-28T03:32:25;3.22;;;0.90;;
27612;SDS011;15036;48.094;-1.690;2022-09-28T03:34:51;1.52;;;0.73;;
27612;SDS011;15036;48.094;-1.690;2022-09-28T03:37:16;2.17;;;0.75;;
27612;SDS011;15036;48.094;-1.690;2022-09-28T03:39:41;2.40;;;0.68;;
27612;SDS011;15036;48.094;-1.690;2022-09-28T03:42:07;3.10;;;1.75;;
27612;SDS011;15036;48.094;-1.690;2022-09-28T03:44:32;3.78;;;1.58;;
27612;SDS011;15036;48.094;-1.690;2022-09-28T03:46:57;1.85;;;0.65;;
27612;SDS011;15036;48.094;-1.690;2022-09-28T03:49:23;2.63;;;0.60;;
27612;SDS011;15036;48.094;-1.690;2022-09-28T03:51:48;1.63;;;0.60;;
27612;SDS011;15036;48.094;-1.690;2022-09-28T03:54:13;2.92;;;0.80;;
27612;SDS011;15036;48.094;-1.690;2022-09-28T03:56:39;3.00;;;1.00;;
27612;SDS011;15036;48.094;-1.690;2022-09-28T03:59:05;2.63;;;1.35;;
27612;SDS011;15036;48.094;-1.690;2022-09-28T04:01:30;3.58;;;0.90;;
27612;SDS011;15036;48.094;-1.690;2022-09-28T04:03:56;2.20;;;0.80;;
27612;SDS011;15036;48.094;-1.690;2022-09-28T04:06:22;4.38;;;0.80;;
27612;SDS011;15036;48.094;-1.690;2022-09-28T04:08:48;3.30;;;1.10;;
27612;SDS011;15036;48.094;-1.690;2022-09-28T04:11:13;2.10;;;0.77;;
27612;SDS011;15036;48.094;-1.690;2022-09-28T04:13:39;2.67;;;1.00;;
27612;SDS011;15036;48.094;-1.690;2022-09-28T04:16:04;3.05;;;0.80;;
27612;SDS011;15036;48.094;-1.690;2022-09-28T04:18:30;3.45;;;0.88;;
27612;SDS011;15036;48.094;-1.690;2022-09-28T04:21:08;3.85;;;1.00;;
27612;SDS011;15036;48.094;-1.690;2022-09-28T04:23:36;3.10;;;0.77;;
27612;SDS011;15036;48.094;-1.690;2022-09-28T04:26:03;3.70;;;0.90;;
27612;SDS011;15036;48.094;-1.690;2022-09-28T04:28:31;3.28;;;1.13;;
27612;SDS011;15036;48.094;-1.690;2022-09-28T04:31:16;2.90;;;0.73;;
27612;SDS011;15036;48.094;-1.690;2022-09-28T04:33:43;2.22;;;0.98;;
27612;SDS011;15036;48.094;-1.690;2022-09-28T04:36:09;4.90;;;1.00;;
27612;SDS011;15036;48.094;-1.690;2022-09-28T04:38:35;2.88;;;0.82;;
27612;SDS011;15036;48.094;-1.690;2022-09-28T04:41:01;4.43;;;1.15;;
27612;SDS011;15036;48.094;-1.690;2022-09-28T04:43:26;3.25;;;0.98;;
27612;SDS011;15036;48.094;-1.690;2022-09-28T04:45:56;3.28;;;1.10;;
27612;SDS011;15036;48.094;-1.690;2022-09-28T04:48:22;4.63;;;1.20;;
27612;SDS011;15036;48.094;-1.690;2022-09-28T04:50:54;3.20;;;0.98;;
27612;SDS011;15036;48.094;-1.690;2022-09-28T04:53:21;5.25;;;1.02;;
27612;SDS011;15036;48.094;-1.690;2022-09-28T04:56:06;3.60;;;1.02;;
27612;SDS011;15036;48.094;-1.690;2022-09-28T04:58:34;3.13;;;1.00;;
27612;SDS011;15036;48.094;-1.690;2022-09-28T05:01:01;1.77;;;0.90;;
27612;SDS011;15036;48.094;-1.690;2022-09-28T05:03:28;4.68;;;0.90;;
27612;SDS011;15036;48.094;-1.690;2022-09-28T05:05:53;2.30;;;0.80;;
27612;SDS011;15036;48.094;-1.690;2022-09-28T05:08:19;3.03;;;0.98;;
27612;SDS011;15036;48.094;-1.690;2022-09-28T05:10:45;4.20;;;1.30;;
27612;SDS011;15036;48.094;-1.690;2022-09-28T05:13:11;2.50;;;0.95;;
27612;SDS011;15036;48.094;-1.690;2022-09-28T05:15:38;3.17;;;0.90;;
27612;SDS011;15036;48.094;-1.690;2022-09-28T05:18:04;3.13;;;1.10;;
27612;SDS011;15036;48.094;-1.690;2022-09-28T05:20:30;2.33;;;1.00;;
27612;SDS011;15036;48.094;-1.690;2022-09-28T05:22:56;3.63;;;1.05;;
27612;SDS011;15036;48.094;-1.690;2022-09-28T05:25:21;2.67;;;0.98;;
27612;SDS011;15036;48.094;-1.690;2022-09-28T05:27:47;2.67;;;1.10;;
27612;SDS011;15036;48.094;-1.690;2022-09-28T05:30:13;4.65;;;1.33;;
27612;SDS011;15036;48.094;-1.690;2022-09-28T05:32:39;2.53;;;1.20;;
27612;SDS011;15036;48.094;-1.690;2022-09-28T05:35:05;4.03;;;1.30;;
27612;SDS011;15036;48.094;-1.690;2022-09-28T05:37:31;5.00;;;1.20;;
27612;SDS011;15036;48.094;-1.690;2022-09-28T05:39:56;3.22;;;1.20;;
27612;SDS011;15036;48.094;-1.690;2022-09-28T05:42:22;3.47;;;1.10;;
27612;SDS011;15036;48.094;-1.690;2022-09-28T05:44:47;3.50;;;1.00;;
27612;SDS011;15036;48.094;-1.690;2022-09-28T05:47:13;3.00;;;1.00;;
27612;SDS011;15036;48.094;-1.690;2022-09-28T05:49:38;3.55;;;1.13;;
27612;SDS011;15036;48.094;-1.690;2022-09-28T05:52:03;2.53;;;1.38;;
27612;SDS011;15036;48.094;-1.690;2022-09-28T05:54:29;4.93;;;1.70;;
27612;SDS011;15036;48.094;-1.690;2022-09-28T05:56:54;2.78;;;1.60;;
27612;SDS011;15036;48.094;-1.690;2022-09-28T05:59:19;4.20;;;1.70;;
27612;SDS011;15036;48.094;-1.690;2022-09-28T06:01:45;5.47;;;1.52;;
27612;SDS011;15036;48.094;-1.690;2022-09-28T06:04:10;2.92;;;1.70;;
27612;SDS011;15036;48.094;-1.690;2022-09-28T06:06:35;5.15;;;1.70;;
27612;SDS011;15036;48.094;-1.690;2022-09-28T06:09:02;3.00;;;1.30;;
27612;SDS011;15036;48.094;-1.690;2022-09-28T06:11:27;5.05;;;1.80;;
27612;SDS011;15036;48.094;-1.690;2022-09-28T06:13:53;4.28;;;1.58;;
27612;SDS011;15036;48.094;-1.690;2022-09-28T06:16:19;5.07;;;2.10;;
27612;SDS011;15036;48.094;-1.690;2022-09-28T06:18:45;5.53;;;2.10;;
27612;SDS011;15036;48.094;-1.690;2022-09-28T06:21:11;5.53;;;2.33;;
27612;SDS011;15036;48.094;-1.690;2022-09-28T06:23:37;7.35;;;2.40;;
27612;SDS011;15036;48.094;-1.690;2022-09-28T06:26:02;4.93;;;2.22;;
27612;SDS011;15036;48.094;-1.690;2022-09-28T06:28:27;4.68;;;2.42;;
27612;SDS011;15036;48.094;-1.690;2022-09-28T06:30:53;4.38;;;2.47;;
27612;SDS011;15036;48.094;-1.690;2022-09-28T06:33:18;4.07;;;2.03;;
27612;SDS011;15036;48.094;-1.690;2022-09-28T06:35:43;5.95;;;2.30;;
27612;SDS011;15036;48.094;-1.690;2022-09-28T06:38:09;4.30;;;2.47;;
27612;SDS011;15036;48.094;-1.690;2022-09-28T06:40:35;5.60;;;2.65;;
27612;SDS011;15036;48.094;-1.690;2022-09-28T06:43:10;5.15;;;3.00;;
27612;SDS011;15036;48.094;-1.690;2022-09-28T06:45:39;7.57;;;2.90;;
27612;SDS011;15036;48.094;-1.690;2022-09-28T06:48:05;6.15;;;2.90;;
27612;SDS011;15036;48.094;-1.690;2022-09-28T06:50:35;5.75;;;3.30;;
27612;SDS011;15036;48.094;-1.690;2022-09-28T06:53:02;4.55;;;3.10;;
27612;SDS011;15036;48.094;-1.690;2022-09-28T06:55:30;5.63;;;2.80;;
27612;SDS011;15036;48.094;-1.690;2022-09-28T06:57:57;5.55;;;2.85;;
27612;SDS011;15036;48.094;-1.690;2022-09-28T07:00:23;8.32;;;3.13;;
27612;SDS011;15036;48.094;-1.690;2022-09-28T07:02:53;5.43;;;2.88;;
27612;SDS011;15036;48.094;-1.690;2022-09-28T07:05:18;9.20;;;3.25;;
27612;SDS011;15036;48.094;-1.690;2022-09-28T07:07:50;7.07;;;3.30;;
27612;SDS011;15036;48.094;-1.690;2022-09-28T07:10:19;6.05;;;2.88;;
27612;SDS011;15036;48.094;-1.690;2022-09-28T07:12:46;8.43;;;3.25;;
27612;SDS011;15036;48.094;-1.690;2022-09-28T07:15:12;9.90;;;3.30;;
27612;SDS011;15036;48.094;-1.690;2022-09-28T07:17:37;6.03;;;3.17;;
27612;SDS011;15036;48.094;-1.690;2022-09-28T07:20:03;6.65;;;3.10;;
27612;SDS011;15036;48.094;-1.690;2022-09-28T07:22:29;7.32;;;3.30;;
27612;SDS011;15036;48.094;-1.690;2022-09-28T07:24:54;8.43;;;3.22;;
27612;SDS011;15036;48.094;-1.690;2022-09-28T07:27:21;5.00;;;3.10;;
27612;SDS011;15036;48.094;-1.690;2022-09-28T07:29:47;11.93;;;3.60;;
27612;SDS011;15036;48.094;-1.690;2022-09-28T07:32:12;6.85;;;2.97;;
27612;SDS011;15036;48.094;-1.690;2022-09-28T07:34:38;6.25;;;2.70;;
27612;SDS011;15036;48.094;-1.690;2022-09-28T07:37:09;7.38;;;2.75;;
27612;SDS011;15036;48.094;-1.690;2022-09-28T07:39:37;6.55;;;2.90;;
27612;SDS011;15036;48.094;-1.690;2022-09-28T07:42:22;11.65;;;3.25;;
27612;SDS011;15036;48.094;-1.690;2022-09-28T07:44:49;10.15;;;3.38;;
27612;SDS011;15036;48.094;-1.690;2022-09-28T07:47:15;9.02;;;3.40;;
27612;SDS011;15036;48.094;-1.690;2022-09-28T07:49:41;8.73;;;3.17;;
27612;SDS011;15036;48.094;-1.690;2022-09-28T07:52:06;6.78;;;3.33;;
27612;SDS011;15036;48.094;-1.690;2022-09-28T07:54:33;9.40;;;3.00;;
27612;SDS011;15036;48.094;-1.690;2022-09-28T07:56:58;10.07;;;3.70;;
27612;SDS011;15036;48.094;-1.690;2022-09-28T07:59:24;6.88;;;3.08;;
27612;SDS011;15036;48.094;-1.690;2022-09-28T08:01:49;7.88;;;3.63;;
27612;SDS011;15036;48.094;-1.690;2022-09-28T08:04:14;6.03;;;3.20;;
27612;SDS011;15036;48.094;-1.690;2022-09-28T08:06:40;8.07;;;3.92;;
27612;SDS011;15036;48.094;-1.690;2022-09-28T08:09:05;16.38;;;4.00;;
27612;SDS011;15036;48.094;-1.690;2022-09-28T08:11:30;10.50;;;3.53;;
27612;SDS011;15036;48.094;-1.690;2022-09-28T08:13:56;7.40;;;3.40;;
27612;SDS011;15036;48.094;-1.690;2022-09-28T08:16:22;7.85;;;3.50;;
27612;SDS011;15036;48.094;-1.690;2022-09-28T08:18:48;7.47;;;2.97;;
27612;SDS011;15036;48.094;-1.690;2022-09-28T08:21:13;8.15;;;3.45;;
27612;SDS011;15036;48.094;-1.690;2022-09-28T08:23:58;13.75;;;3.70;;
27612;SDS011;15036;48.094;-1.690;2022-09-28T08:26:23;9.60;;;3.53;;
27612;SDS011;15036;48.094;-1.690;2022-09-28T08:28:49;9.48;;;3.50;;
27612;SDS011;15036;48.094;-1.690;2022-09-28T08:31:15;9.77;;;3.50;;
27612;SDS011;15036;48.094;-1.690;2022-09-28T08:33:40;9.32;;;3.72;;
27612;SDS011;15036;48.094;-1.690;2022-09-28T08:36:06;12.50;;;3.45;;
27612;SDS011;15036;48.094;-1.690;2022-09-28T08:38:33;9.90;;;3.10;;
27612;SDS011;15036;48.094;-1.690;2022-09-28T08:46:09;10.98;;;3.00;;
27612;SDS011;15036;48.094;-1.690;2022-09-28T08:48:38;7.88;;;2.75;;
27612;SDS011;15036;48.094;-1.690;2022-09-28T08:56:47;9.82;;;2.38;;
27612;SDS011;15036;48.094;-1.690;2022-09-28T08:59:17;7.32;;;2.40;;
27612;SDS011;15036;48.094;-1.690;2022-09-28T09:01:47;6.75;;;2.33;;
27612;SDS011;15036;48.094;-1.690;2022-09-28T09:04:25;7.25;;;2.08;;
27612;SDS011;15036;48.094;-1.690;2022-09-28T09:06:54;6.70;;;1.98;;
27612;SDS011;15036;48.094;-1.690;2022-09-28T09:12:48;5.43;;;1.70;;
27612;SDS011;15036;48.094;-1.690;2022-09-28T09:18:11;6.18;;;1.85;;
27612;SDS011;15036;48.094;-1.690;2022-09-28T09:20:56;7.45;;;2.33;;
27612;SDS011;15036;48.094;-1.690;2022-09-28T09:23:35;8.20;;;2.95;;
27612;SDS011;15036;48.094;-1.690;2022-09-28T09:26:14;8.90;;;2.50;;
27612;SDS011;15036;48.094;-1.690;2022-09-28T09:28:46;7.28;;;2.17;;
27612;SDS011;15036;48.094;-1.690;2022-09-28T09:31:30;8.15;;;2.42;;
27612;SDS011;15036;48.094;-1.690;2022-09-28T09:37:14;8.45;;;2.78;;
27612;SDS011;15036;48.094;-1.690;2022-09-28T09:42:41;11.50;;;4.32;;
27612;SDS011;15036;48.094;-1.690;2022-09-28T09:48:18;7.30;;;3.03;;
27612;SDS011;15036;48.094;-1.690;2022-09-28T09:50:54;9.95;;;4.75;;
27612;SDS011;15036;48.094;-1.690;2022-09-28T09:56:01;13.50;;;3.13;;
27612;SDS011;15036;48.094;-1.690;2022-09-28T09:58:34;12.00;;;4.97;;
27612;SDS011;15036;48.094;-1.690;2022-09-28T10:01:11;7.70;;;2.38;;
27612;SDS011;15036;48.094;-1.690;2022-09-28T10:03:40;9.00;;;2.28;;
27612;SDS011;15036;48.094;-1.690;2022-09-28T10:06:11;7.22;;;1.92;;
27612;SDS011;15036;48.094;-1.690;2022-09-28T10:08:41;7.10;;;1.75;;
27612;SDS011;15036;48.094;-1.690;2022-09-28T10:13:37;8.75;;;2.92;;
27612;SDS011;15036;48.094;-1.690;2022-09-28T10:16:04;8.70;;;2.45;;
27612;SDS011;15036;48.094;-1.690;2022-09-28T10:18:30;6.53;;;2.30;;
27612;SDS011;15036;48.094;-1.690;2022-09-28T10:20:56;13.50;;;3.97;;
27612;SDS011;15036;48.094;-1.690;2022-09-28T10:23:23;12.98;;;7.90;;
27612;SDS011;15036;48.094;-1.690;2022-09-28T10:25:53;9.23;;;2.30;;
27612;SDS011;15036;48.094;-1.690;2022-09-28T10:28:27;9.25;;;2.55;;
27612;SDS011;15036;48.094;-1.690;2022-09-28T10:30:58;22.13;;;14.35;;
27612;SDS011;15036;48.094;-1.690;2022-09-28T10:33:30;9.48;;;3.42;;
27612;SDS011;15036;48.094;-1.690;2022-09-28T10:35:58;6.40;;;3.20;;
27612;SDS011;15036;48.094;-1.690;2022-09-28T10:38:25;7.07;;;2.50;;
27612;SDS011;15036;48.094;-1.690;2022-09-28T10:40:54;4.93;;;2.10;;
27612;SDS011;15036;48.094;-1.690;2022-09-28T10:43:30;7.88;;;2.60;;
27612;SDS011;15036;48.094;-1.690;2022-09-28T10:46:01;6.57;;;1.70;;
27612;SDS011;15036;48.094;-1.690;2022-09-28T10:48:37;14.55;;;7.93;;
27612;SDS011;15036;48.094;-1.690;2022-09-28T10:51:12;10.38;;;3.70;;
27612;SDS011;15036;48.094;-1.690;2022-09-28T10:53:38;8.48;;;3.47;;
27612;SDS011;15036;48.094;-1.690;2022-09-28T10:56:05;8.05;;;2.88;;
27612;SDS011;15036;48.094;-1.690;2022-09-28T10:58:42;5.53;;;2.30;;
27612;SDS011;15036;48.094;-1.690;2022-09-28T11:01:12;6.30;;;1.75;;
27612;SDS011;15036;48.094;-1.690;2022-09-28T11:03:47;11.25;;;5.93;;
27612;SDS011;15036;48.094;-1.690;2022-09-28T11:06:26;7.53;;;2.35;;
27612;SDS011;15036;48.094;-1.690;2022-09-28T11:09:05;5.45;;;1.95;;
27612;SDS011;15036;48.094;-1.690;2022-09-28T11:11:49;8.07;;;2.03;;
27612;SDS011;15036;48.094;-1.690;2022-09-28T11:19:57;6.97;;;2.40;;
27612;SDS011;15036;48.094;-1.690;2022-09-28T11:22:43;8.75;;;4.10;;
27612;SDS011;15036;48.094;-1.690;2022-09-28T11:25:28;6.97;;;1.98;;
27612;SDS011;15036;48.094;-1.690;2022-09-28T11:27:56;10.52;;;5.30;;
27612;SDS011;15036;48.094;-1.690;2022-09-28T11:30:43;6.38;;;1.98;;
27612;SDS011;15036;48.094;-1.690;2022-09-28T11:33:19;6.53;;;2.80;;
27612;SDS011;15036;48.094;-1.690;2022-09-28T11:38:39;5.97;;;2.30;;
27612;SDS011;15036;48.094;-1.690;2022-09-28T11:51:44;9.20;;;3.83;;
27612;SDS011;15036;48.094;-1.690;2022-09-28T11:57:00;8.20;;;2.75;;
27612;SDS011;15036;48.094;-1.690;2022-09-28T12:01:59;7.70;;;2.40;;
27612;SDS011;15036;48.094;-1.690;2022-09-28T12:04:34;6.18;;;2.38;;
27612;SDS011;15036;48.094;-1.690;2022-09-28T12:07:10;6.20;;;1.92;;
27612;SDS011;15036;48.094;-1.690;2022-09-28T12:09:39;6.45;;;3.60;;
27612;SDS011;15036;48.094;-1.690;2022-09-28T12:12:19;5.53;;;3.05;;
27612;SDS011;15036;48.094;-1.690;2022-09-28T12:14:50;4.63;;;2.38;;
27612;SDS011;15036;48.094;-1.690;2022-09-28T12:17:22;4.85;;;1.75;;
27612;SDS011;15036;48.094;-1.690;2022-09-28T12:25:23;5.03;;;2.60;;
27612;SDS011;15036;48.094;-1.690;2022-09-28T12:27:52;4.30;;;1.95;;
27612;SDS011;15036;48.094;-1.690;2022-09-28T12:30:23;3.97;;;2.00;;
27612;SDS011;15036;48.094;-1.690;2022-09-28T12:32:51;3.50;;;1.10;;
27612;SDS011;15036;48.094;-1.690;2022-09-28T12:40:56;4.50;;;1.10;;
27612;SDS011;15036;48.094;-1.690;2022-09-28T12:43:32;5.75;;;1.48;;
27612;SDS011;15036;48.094;-1.690;2022-09-28T12:51:46;5.78;;;1.30;;
27612;SDS011;15036;48.094;-1.690;2022-09-28T12:59:55;3.72;;;1.10;;
27612;SDS011;15036;48.094;-1.690;2022-09-28T13:03:12;4.15;;;1.40;;
27612;SDS011;15036;48.094;-1.690;2022-09-28T13:08:03;6.88;;;1.60;;
27612;SDS011;15036;48.094;-1.690;2022-09-28T13:10:43;7.38;;;3.15;;
27612;SDS011;15036;48.094;-1.690;2022-09-28T13:15:56;7.28;;;4.00;;
27612;SDS011;15036;48.094;-1.690;2022-09-28T13:24:06;3.83;;;1.60;;
27612;SDS011;15036;48.094;-1.690;2022-09-28T13:26:37;6.57;;;2.45;;
27612;SDS011;15036;48.094;-1.690;2022-09-28T13:29:10;6.45;;;2.10;;
27612;SDS011;15036;48.094;-1.690;2022-09-28T13:31:49;8.75;;;2.00;;
27612;SDS011;15036;48.094;-1.690;2022-09-28T13:34:18;6.50;;;1.85;;
27612;SDS011;15036;48.094;-1.690;2022-09-28T13:52:59;7.10;;;2.13;;
27612;SDS011;15036;48.094;-1.690;2022-09-28T13:58:12;5.07;;;1.65;;
27612;SDS011;15036;48.094;-1.690;2022-09-28T14:13:58;9.40;;;1.80;;
27612;SDS011;15036;48.094;-1.690;2022-09-28T14:16:48;7.00;;;1.65;;
27612;SDS011;15036;48.094;-1.690;2022-09-28T14:19:23;6.03;;;1.92;;
27612;SDS011;15036;48.094;-1.690;2022-09-28T14:24:41;11.23;;;2.42;;
27612;SDS011;15036;48.094;-1.690;2022-09-28T14:30:25;6.70;;;1.83;;
27612;SDS011;15036;48.094;-1.690;2022-09-28T14:33:21;7.47;;;3.15;;
27612;SDS011;15036;48.094;-1.690;2022-09-28T14:38:20;10.13;;;4.28;;
27612;SDS011;15036;48.094;-1.690;2022-09-28T14:46:27;6.65;;;1.90;;
27612;SDS011;15036;48.094;-1.690;2022-09-28T15:01:53;5.45;;;1.70;;
27612;SDS011;15036;48.094;-1.690;2022-09-28T15:04:22;5.18;;;1.60;;
27612;SDS011;15036;48.094;-1.690;2022-09-28T15:06:51;4.03;;;1.40;;
27612;SDS011;15036;48.094;-1.690;2022-09-28T15:09:27;7.15;;;1.73;;
27612;SDS011;15036;48.094;-1.690;2022-09-28T15:12:04;8.93;;;1.77;;
27612;SDS011;15036;48.094;-1.690;2022-09-28T15:14:44;6.40;;;1.80;;
27612;SDS011;15036;48.094;-1.690;2022-09-28T15:17:15;6.78;;;1.85;;
27612;SDS011;15036;48.094;-1.690;2022-09-28T15:20:06;6.88;;;1.70;;
27612;SDS011;15036;48.094;-1.690;2022-09-28T15:22:35;6.55;;;1.95;;
27612;SDS011;15036;48.094;-1.690;2022-09-28T15:25:02;6.95;;;1.70;;
27612;SDS011;15036;48.094;-1.690;2022-09-28T15:27:37;8.02;;;1.95;;
27612;SDS011;15036;48.094;-1.690;2022-09-28T15:32:42;10.57;;;1.88;;
27612;SDS011;15036;48.094;-1.690;2022-09-28T15:35:09;7.53;;;2.05;;
27612;SDS011;15036;48.094;-1.690;2022-09-28T15:40:07;5.15;;;1.60;;
27612;SDS011;15036;48.094;-1.690;2022-09-28T15:42:37;5.05;;;1.55;;
27612;SDS011;15036;48.094;-1.690;2022-09-28T15:47:37;6.15;;;1.77;;
27612;SDS011;15036;48.094;-1.690;2022-09-28T15:50:18;8.43;;;2.28;;
27612;SDS011;15036;48.094;-1.690;2022-09-28T15:52:53;9.55;;;4.28;;
27612;SDS011;15036;48.094;-1.690;2022-09-28T15:55:32;9.32;;;2.15;;
27612;SDS011;15036;48.094;-1.690;2022-09-28T15:58:04;9.70;;;3.53;;
27612;SDS011;15036;48.094;-1.690;2022-09-28T16:00:44;5.53;;;1.67;;
27612;SDS011;15036;48.094;-1.690;2022-09-28T16:13:53;9.05;;;2.30;;
27612;SDS011;15036;48.094;-1.690;2022-09-28T16:16:22;7.55;;;1.80;;
27612;SDS011;15036;48.094;-1.690;2022-09-28T16:18:52;7.57;;;1.70;;
27612;SDS011;15036;48.094;-1.690;2022-09-28T16:21:24;10.95;;;1.92;;
27612;SDS011;15036;48.094;-1.690;2022-09-28T16:23:55;7.55;;;1.55;;
27612;SDS011;15036;48.094;-1.690;2022-09-28T16:26:29;5.68;;;1.58;;
27612;SDS011;15036;48.094;-1.690;2022-09-28T16:29:04;7.10;;;1.67;;
27612;SDS011;15036;48.094;-1.690;2022-09-28T16:31:49;6.75;;;1.73;;
27612;SDS011;15036;48.094;-1.690;2022-09-28T16:34:18;8.10;;;1.80;;
27612;SDS011;15036;48.094;-1.690;2022-09-28T16:39:14;7.20;;;1.63;;
27612;SDS011;15036;48.094;-1.690;2022-09-28T16:41:42;6.82;;;1.98;;
27612;SDS011;15036;48.094;-1.690;2022-09-28T16:44:24;8.82;;;1.70;;
27612;SDS011;15036;48.094;-1.690;2022-09-28T16:46:52;6.93;;;1.75;;
27612;SDS011;15036;48.094;-1.690;2022-09-28T16:49:21;7.53;;;1.98;;
27612;SDS011;15036;48.094;-1.690;2022-09-28T16:51:49;8.48;;;1.80;;
27612;SDS011;15036;48.094;-1.690;2022-09-28T16:54:19;6.82;;;2.05;;
27612;SDS011;15036;48.094;-1.690;2022-09-28T16:57:05;8.10;;;1.98;;
27612;SDS011;15036;48.094;-1.690;2022-09-28T16:59:33;8.90;;;2.08;;
27612;SDS011;15036;48.094;-1.690;2022-09-28T17:02:05;8.70;;;2.22;;
27612;SDS011;15036;48.094;-1.690;2022-09-28T17:04:39;9.27;;;2.00;;
27612;SDS011;15036;48.094;-1.690;2022-09-28T17:07:04;8.80;;;2.42;;
27612;SDS011;15036;48.094;-1.690;2022-09-28T17:09:29;7.97;;;2.10;;
27612;SDS011;15036;48.094;-1.690;2022-09-28T17:11:55;6.85;;;2.17;;
27612;SDS011;15036;48.094;-1.690;2022-09-28T17:14:20;8.48;;;2.22;;
27612;SDS011;15036;48.094;-1.690;2022-09-28T17:16:47;8.40;;;2.20;;
27612;SDS011;15036;48.094;-1.690;2022-09-28T17:19:21;6.97;;;1.80;;
27612;SDS011;15036;48.094;-1.690;2022-09-28T17:21:49;7.93;;;2.30;;
27612;SDS011;15036;48.094;-1.690;2022-09-28T17:24:15;5.55;;;1.52;;
27612;SDS011;15036;48.094;-1.690;2022-09-28T17:26:41;8.45;;;1.70;;
27612;SDS011;15036;48.094;-1.690;2022-09-28T17:29:12;4.32;;;1.27;;
27612;SDS011;15036;48.094;-1.690;2022-09-28T17:31:39;9.38;;;1.55;;
27612;SDS011;15036;48.094;-1.690;2022-09-28T17:34:06;5.70;;;1.45;;
27612;SDS011;15036;48.094;-1.690;2022-09-28T17:36:31;4.93;;;1.63;;
27612;SDS011;15036;48.094;-1.690;2022-09-28T17:38:57;4.70;;;1.30;;
27612;SDS011;15036;48.094;-1.690;2022-09-28T17:41:22;7.78;;;1.20;;
27612;SDS011;15036;48.094;-1.690;2022-09-28T17:43:48;5.05;;;1.83;;
27612;SDS011;15036;48.094;-1.690;2022-09-28T17:48:51;7.82;;;1.80;;
27612;SDS011;15036;48.094;-1.690;2022-09-28T17:51:17;6.38;;;1.40;;
27612;SDS011;15036;48.094;-1.690;2022-09-28T17:53:42;5.47;;;1.25;;
27612;SDS011;15036;48.094;-1.690;2022-09-28T17:56:08;5.88;;;1.80;;
27612;SDS011;15036;48.094;-1.690;2022-09-28T17:58:34;7.55;;;2.63;;
27612;SDS011;15036;48.094;-1.690;2022-09-28T18:00:59;5.70;;;1.67;;
27612;SDS011;15036;48.094;-1.690;2022-09-28T18:03:25;5.80;;;1.48;;
27612;SDS011;15036;48.094;-1.690;2022-09-28T18:05:58;4.57;;;1.42;;
27612;SDS011;15036;48.094;-1.690;2022-09-28T18:08:27;6.57;;;1.40;;
27612;SDS011;15036;48.094;-1.690;2022-09-28T18:10:52;7.10;;;1.60;;
27612;SDS011;15036;48.094;-1.690;2022-09-28T18:13:18;5.32;;;1.30;;